Aviation Digital Data Service (ADDS)

Output produced by METARs form (2250 UTC 25 October 2014)
found at http://www.aviationweather.gov/adds/metars/
 
KDUJ 252153Z AUTO 24014G20KT 10SM SCT042 BKN050 16/09 A2970 RMK AO2 PK WND 25028/2112 SLP056 T01560089 $
KDUJ 252053Z AUTO 24016G24KT 10SM FEW040 17/09 A2971 RMK AO2 SLP059 T01670089 58021 $
KDUJ 251953Z AUTO 24011KT 10SM BKN039 OVC048 16/09 A2974 RMK AO2 SLP068 T01560094 $
KDUJ 251853Z AUTO 24014KT 10SM OVC032 15/09 A2975 RMK AO2 SLP075 T01500089 $
KDUJ 251753Z AUTO 24016G25KT 10SM FEW028 OVC049 16/09 A2978 RMK AO2 SLP082 T01560089 10161 20061 58029 $
KDUJ 251653Z AUTO 23016KT 10SM FEW022 BKN090 14/09 A2981 RMK AO2 SLP096 T01390089 $
KDUJ 251621Z AUTO 24015G21KT 10SM SCT019 OVC090 13/09 A2985 RMK AO2 T01330089 $
KDUJ 251553Z AUTO 26010G20KT 10SM BKN020 OVC028 13/08 A2986 RMK AO2 SLP111 T01330083 $
KDUJ 251515Z AUTO 25012KT 10SM BKN026 BKN031 OVC090 12/08 A2986 RMK AO2 T01220078 $
KDUJ 251453Z AUTO 25012KT 10SM SCT032 BKN090 12/07 A2987 RMK AO2 SLP116 T01170072 58016 $
KDUJ 251353Z AUTO 24007KT 10SM FEW038 10/05 A2989 RMK AO2 SLP126 T01000050 $
KDUJ 251253Z AUTO 24009KT 10SM BKN040 08/04 A2991 RMK AO2 SLP132 T00780044 $
KDUJ 251153Z AUTO 24006KT 10SM BKN040 06/03 A2992 RMK AO2 SLP135 T00610033 10078 20056 57003 $
KDUJ 251053Z AUTO 24006KT 10SM OVC038 07/03 A2992 RMK AO2 SLP136 T00670033 $
KDUJ 250953Z AUTO 22003KT 10SM FEW040 06/03 A2992 RMK AO2 SLP134 T00560033 $
KDUJ 250853Z AUTO 22004KT 10SM OVC042 07/04 A2992 RMK AO2 SLP135 T00720039 58013 $
KDUJ 250753Z AUTO 23004KT 10SM OVC043 07/04 A2994 RMK AO2 SLP140 T00720039
KDUJ 250653Z AUTO 23004KT 10SM OVC045 07/03 A2995 RMK AO2 SLP145 T00720033
KDUJ 250553Z AUTO 26006KT 10SM BKN032 OVC044 08/03 A2997 RMK AO2 SLP149 T00780033 10106 20067 56007
KDUJ 250453Z AUTO 24005KT 10SM OVC046 08/03 A2997 RMK AO2 SLP150 T00780033 401390056
KDUJ 250353Z AUTO 26005KT 10SM SCT041 08/03 A2998 RMK AO2 SLP155 T00780028
KDUJ 250253Z AUTO 27005KT 10SM FEW042 08/03 A2999 RMK AO2 SLP159 T00830028 51005
KDUJ 250153Z AUTO 26005KT 10SM CLR 09/03 A2998 RMK AO2 SLP158 T00890028
KDUJ 250053Z AUTO 26003KT 10SM CLR 09/02 A2998 RMK AO2 SLP157 T00890022
KDUJ 242353Z AUTO 28005KT 10SM CLR 11/02 A2997 RMK AO2 SLP154 T01060022 10139 20100 53003
KDUJ 242253Z AUTO 28005KT 10SM CLR 11/02 A2996 RMK AO2 SLP150 T01110017
KDUJ 242153Z AUTO 29007KT 10SM CLR 13/02 A2996 RMK AO2 SLP146 T01280022
KDUJ 242053Z AUTO 29009KT 10SM CLR 13/03 A2996 RMK AO2 SLP147 T01330028 56009
KDUJ 241953Z AUTO 30009KT 10SM CLR 13/03 A2997 RMK AO2 SLP151 T01330028
KDUJ 241853Z AUTO 28008KT 10SM CLR 13/02 A2997 RMK AO2 SLP152 T01330022
KDUJ 241753Z AUTO 29012G16KT 10SM CLR 13/04 A2999 RMK AO2 SLP157 T01330039 10133 20056 58018
KDUJ 241653Z AUTO 26006KT 10SM CLR 12/05 A3001 RMK AO2 SLP166 T01170050
KDUJ 241619Z AUTO 33007KT 10SM SCT019 10/04 A3003 RMK AO2 T01000044
KDUJ 241553Z AUTO 29010G16KT 10SM BKN018 09/04 A3004 RMK AO2 SLP178 T00940044
KDUJ 241508Z AUTO 32008G19KT 10SM BKN016 08/04 A3004 RMK AO2 T00830044
KDUJ 241453Z AUTO 29013KT 10SM BKN014 08/05 A3004 RMK AO2 SLP179 T00830050 50002
KDUJ 241444Z AUTO 30012KT 10SM BKN014 08/05 A3004 RMK AO2 T00830050
KDUJ 241433Z AUTO 26007KT 10SM BKN015 08/06 A3005 RMK AO2 T00780056
KDUJ 241353Z AUTO 30009KT 10SM BKN010 08/05 A3005 RMK AO2 SLP180 T00780050
KDUJ 241253Z AUTO 27004KT 8SM FEW006 07/06 A3004 RMK AO2 SLP178 T00670056
KDUJ 241213Z AUTO 27005KT 10SM FEW009 06/05 A3004 RMK AO2 T00560050
KDUJ 241201Z AUTO 29006KT 10SM SCT011 06/05 A3004 RMK AO2 T00610050
KDUJ 241153Z AUTO 29006KT 10SM BKN011 06/04 A3004 RMK AO2 SLP177 T00610044 10078 20056 50004
KDUJ 241119Z AUTO 30005KT 10SM BKN014 07/05 A3004 RMK AO2 T00670050
KDUJ 241053Z AUTO 31004KT 10SM OVC015 07/05 A3004 RMK AO2 SLP176 T00720050